sensor_id;sensor_type;location;lat;lon;timestamp;P1;durP1;ratioP1;P2;durP2;ratioP2
25988;SDS011;13778;48.236;9.894;2022-12-07T00:04:28;11.48;;;8.40;;
25988;SDS011;13778;48.236;9.894;2022-12-07T00:07:20;12.35;;;7.85;;
25988;SDS011;13778;48.236;9.894;2022-12-07T00:10:10;11.23;;;8.02;;
25988;SDS011;13778;48.236;9.894;2022-12-07T00:13:01;13.52;;;8.95;;
25988;SDS011;13778;48.236;9.894;2022-12-07T00:15:51;11.50;;;8.60;;
25988;SDS011;13778;48.236;9.894;2022-12-07T00:18:42;12.20;;;8.90;;
25988;SDS011;13778;48.236;9.894;2022-12-07T00:21:34;12.38;;;8.50;;
25988;SDS011;13778;48.236;9.894;2022-12-07T00:24:26;12.98;;;8.27;;
25988;SDS011;13778;48.236;9.894;2022-12-07T00:27:17;10.65;;;8.30;;
25988;SDS011;13778;48.236;9.894;2022-12-07T00:30:07;12.27;;;8.98;;
25988;SDS011;13778;48.236;9.894;2022-12-07T00:32:58;12.73;;;8.45;;
25988;SDS011;13778;48.236;9.894;2022-12-07T00:35:54;12.60;;;8.75;;
25988;SDS011;13778;48.236;9.894;2022-12-07T00:38:45;12.45;;;8.77;;
25988;SDS011;13778;48.236;9.894;2022-12-07T00:41:37;13.32;;;8.80;;
25988;SDS011;13778;48.236;9.894;2022-12-07T00:47:17;14.40;;;8.50;;
25988;SDS011;13778;48.236;9.894;2022-12-07T00:50:08;12.70;;;8.70;;
25988;SDS011;13778;48.236;9.894;2022-12-07T00:52:58;13.68;;;8.85;;
25988;SDS011;13778;48.236;9.894;2022-12-07T00:55:48;14.60;;;9.38;;
25988;SDS011;13778;48.236;9.894;2022-12-07T00:58:40;15.05;;;8.82;;
25988;SDS011;13778;48.236;9.894;2022-12-07T01:04:21;12.85;;;8.48;;
25988;SDS011;13778;48.236;9.894;2022-12-07T01:07:11;12.70;;;8.45;;
25988;SDS011;13778;48.236;9.894;2022-12-07T01:10:02;12.98;;;8.55;;
25988;SDS011;13778;48.236;9.894;2022-12-07T01:12:53;12.45;;;9.07;;
25988;SDS011;13778;48.236;9.894;2022-12-07T01:15:44;18.13;;;9.07;;
25988;SDS011;13778;48.236;9.894;2022-12-07T01:21:26;12.55;;;8.15;;
25988;SDS011;13778;48.236;9.894;2022-12-07T01:24:16;17.73;;;8.90;;
25988;SDS011;13778;48.236;9.894;2022-12-07T01:27:07;10.45;;;7.82;;
25988;SDS011;13778;48.236;9.894;2022-12-07T01:29:57;10.70;;;7.88;;
25988;SDS011;13778;48.236;9.894;2022-12-07T01:32:49;12.38;;;8.30;;
25988;SDS011;13778;48.236;9.894;2022-12-07T01:35:39;13.57;;;7.95;;
25988;SDS011;13778;48.236;9.894;2022-12-07T01:38:30;12.02;;;8.18;;
25988;SDS011;13778;48.236;9.894;2022-12-07T01:41:21;11.25;;;7.68;;
25988;SDS011;13778;48.236;9.894;2022-12-07T01:44:19;11.25;;;8.50;;
25988;SDS011;13778;48.236;9.894;2022-12-07T01:47:10;12.63;;;8.52;;
25988;SDS011;13778;48.236;9.894;2022-12-07T01:50:02;11.02;;;7.95;;
25988;SDS011;13778;48.236;9.894;2022-12-07T01:52:52;14.68;;;9.20;;
25988;SDS011;13778;48.236;9.894;2022-12-07T01:55:44;12.05;;;8.57;;
25988;SDS011;13778;48.236;9.894;2022-12-07T01:58:36;11.82;;;8.25;;
25988;SDS011;13778;48.236;9.894;2022-12-07T02:01:27;13.33;;;8.83;;
25988;SDS011;13778;48.236;9.894;2022-12-07T02:04:18;14.13;;;9.30;;
25988;SDS011;13778;48.236;9.894;2022-12-07T02:07:09;15.85;;;9.57;;
25988;SDS011;13778;48.236;9.894;2022-12-07T02:10:11;13.98;;;8.95;;
25988;SDS011;13778;48.236;9.894;2022-12-07T02:13:02;14.45;;;9.98;;
25988;SDS011;13778;48.236;9.894;2022-12-07T02:18:49;13.38;;;9.40;;
25988;SDS011;13778;48.236;9.894;2022-12-07T02:21:43;15.00;;;8.95;;
25988;SDS011;13778;48.236;9.894;2022-12-07T02:24:42;11.98;;;8.82;;
25988;SDS011;13778;48.236;9.894;2022-12-07T02:27:40;13.38;;;8.95;;
25988;SDS011;13778;48.236;9.894;2022-12-07T02:30:35;12.98;;;9.00;;
25988;SDS011;13778;48.236;9.894;2022-12-07T02:33:31;15.82;;;9.73;;
25988;SDS011;13778;48.236;9.894;2022-12-07T02:36:22;13.20;;;9.30;;
25988;SDS011;13778;48.236;9.894;2022-12-07T02:39:16;15.63;;;10.30;;
25988;SDS011;13778;48.236;9.894;2022-12-07T02:42:09;13.20;;;9.13;;
25988;SDS011;13778;48.236;9.894;2022-12-07T02:45:02;14.05;;;9.95;;
25988;SDS011;13778;48.236;9.894;2022-12-07T02:47:56;15.43;;;9.95;;
25988;SDS011;13778;48.236;9.894;2022-12-07T02:50:49;13.38;;;9.45;;
25988;SDS011;13778;48.236;9.894;2022-12-07T02:53:40;15.77;;;9.63;;
25988;SDS011;13778;48.236;9.894;2022-12-07T02:56:34;12.48;;;9.23;;
25988;SDS011;13778;48.236;9.894;2022-12-07T02:59:32;14.88;;;10.15;;
25988;SDS011;13778;48.236;9.894;2022-12-07T03:02:25;15.57;;;10.27;;
25988;SDS011;13778;48.236;9.894;2022-12-07T03:05:31;13.63;;;9.52;;
25988;SDS011;13778;48.236;9.894;2022-12-07T03:08:29;13.90;;;9.98;;
25988;SDS011;13778;48.236;9.894;2022-12-07T03:11:22;15.73;;;10.32;;
25988;SDS011;13778;48.236;9.894;2022-12-07T03:14:15;16.00;;;10.60;;
25988;SDS011;13778;48.236;9.894;2022-12-07T03:17:08;15.30;;;10.52;;
25988;SDS011;13778;48.236;9.894;2022-12-07T03:20:02;16.20;;;10.65;;
25988;SDS011;13778;48.236;9.894;2022-12-07T03:22:55;16.75;;;11.70;;
25988;SDS011;13778;48.236;9.894;2022-12-07T03:25:47;16.83;;;10.88;;
25988;SDS011;13778;48.236;9.894;2022-12-07T03:28:39;15.57;;;10.93;;
25988;SDS011;13778;48.236;9.894;2022-12-07T03:31:31;17.38;;;11.32;;
25988;SDS011;13778;48.236;9.894;2022-12-07T03:37:14;17.50;;;11.02;;
25988;SDS011;13778;48.236;9.894;2022-12-07T03:40:10;18.17;;;11.60;;
25988;SDS011;13778;48.236;9.894;2022-12-07T03:43:02;18.73;;;11.95;;
25988;SDS011;13778;48.236;9.894;2022-12-07T03:45:55;16.20;;;11.57;;
25988;SDS011;13778;48.236;9.894;2022-12-07T03:48:52;16.40;;;11.30;;
25988;SDS011;13778;48.236;9.894;2022-12-07T03:51:45;15.85;;;11.50;;
25988;SDS011;13778;48.236;9.894;2022-12-07T03:54:37;18.38;;;10.93;;
25988;SDS011;13778;48.236;9.894;2022-12-07T03:57:31;16.10;;;10.35;;
25988;SDS011;13778;48.236;9.894;2022-12-07T04:00:23;17.42;;;11.50;;
25988;SDS011;13778;48.236;9.894;2022-12-07T04:03:14;16.75;;;11.68;;
25988;SDS011;13778;48.236;9.894;2022-12-07T04:06:05;18.75;;;11.98;;
25988;SDS011;13778;48.236;9.894;2022-12-07T04:08:55;17.50;;;13.05;;
25988;SDS011;13778;48.236;9.894;2022-12-07T04:11:46;22.98;;;17.88;;
25988;SDS011;13778;48.236;9.894;2022-12-07T04:14:38;34.83;;;24.77;;
25988;SDS011;13778;48.236;9.894;2022-12-07T04:20:18;17.02;;;11.25;;
25988;SDS011;13778;48.236;9.894;2022-12-07T04:23:09;41.03;;;23.92;;
25988;SDS011;13778;48.236;9.894;2022-12-07T04:25:59;99.03;;;60.75;;
25988;SDS011;13778;48.236;9.894;2022-12-07T04:28:50;61.10;;;39.33;;
25988;SDS011;13778;48.236;9.894;2022-12-07T04:31:41;38.80;;;25.17;;
25988;SDS011;13778;48.236;9.894;2022-12-07T04:34:32;42.65;;;27.92;;
25988;SDS011;13778;48.236;9.894;2022-12-07T04:37:22;27.90;;;17.48;;
25988;SDS011;13778;48.236;9.894;2022-12-07T04:40:13;20.10;;;13.55;;
25988;SDS011;13778;48.236;9.894;2022-12-07T04:43:03;21.08;;;14.68;;
25988;SDS011;13778;48.236;9.894;2022-12-07T04:45:54;19.75;;;12.02;;
25988;SDS011;13778;48.236;9.894;2022-12-07T04:48:46;18.88;;;12.90;;
25988;SDS011;13778;48.236;9.894;2022-12-07T04:51:37;18.38;;;12.23;;
25988;SDS011;13778;48.236;9.894;2022-12-07T04:54:27;15.93;;;10.98;;
25988;SDS011;13778;48.236;9.894;2022-12-07T04:57:18;18.35;;;12.27;;
25988;SDS011;13778;48.236;9.894;2022-12-07T05:00:09;17.05;;;11.32;;
25988;SDS011;13778;48.236;9.894;2022-12-07T05:02:59;16.58;;;11.77;;
25988;SDS011;13778;48.236;9.894;2022-12-07T05:05:51;16.52;;;11.20;;
25988;SDS011;13778;48.236;9.894;2022-12-07T05:11:32;17.60;;;10.73;;
25988;SDS011;13778;48.236;9.894;2022-12-07T05:14:29;16.55;;;11.32;;
25988;SDS011;13778;48.236;9.894;2022-12-07T05:17:20;15.38;;;11.10;;
25988;SDS011;13778;48.236;9.894;2022-12-07T05:20:11;15.82;;;10.68;;
25988;SDS011;13778;48.236;9.894;2022-12-07T05:23:03;20.93;;;12.17;;
25988;SDS011;13778;48.236;9.894;2022-12-07T05:25:53;17.00;;;11.20;;
25988;SDS011;13778;48.236;9.894;2022-12-07T05:28:43;18.23;;;11.35;;
25988;SDS011;13778;48.236;9.894;2022-12-07T05:31:34;16.02;;;11.45;;
25988;SDS011;13778;48.236;9.894;2022-12-07T05:34:24;17.00;;;11.57;;
25988;SDS011;13778;48.236;9.894;2022-12-07T05:37:15;18.52;;;11.40;;
25988;SDS011;13778;48.236;9.894;2022-12-07T05:40:08;21.05;;;13.20;;
25988;SDS011;13778;48.236;9.894;2022-12-07T05:42:59;19.02;;;12.23;;
25988;SDS011;13778;48.236;9.894;2022-12-07T05:45:49;17.65;;;11.45;;
25988;SDS011;13778;48.236;9.894;2022-12-07T05:48:40;16.90;;;10.52;;
25988;SDS011;13778;48.236;9.894;2022-12-07T05:51:30;19.73;;;12.05;;
25988;SDS011;13778;48.236;9.894;2022-12-07T05:54:21;16.58;;;11.05;;
25988;SDS011;13778;48.236;9.894;2022-12-07T05:57:13;17.02;;;11.05;;
25988;SDS011;13778;48.236;9.894;2022-12-07T06:02:52;16.15;;;10.68;;
25988;SDS011;13778;48.236;9.894;2022-12-07T06:05:43;14.52;;;10.77;;
25988;SDS011;13778;48.236;9.894;2022-12-07T06:08:33;16.42;;;10.27;;
25988;SDS011;13778;48.236;9.894;2022-12-07T06:11:24;16.67;;;11.27;;
25988;SDS011;13778;48.236;9.894;2022-12-07T06:14:33;17.10;;;11.18;;
25988;SDS011;13778;48.236;9.894;2022-12-07T06:20:14;14.27;;;10.27;;
25988;SDS011;13778;48.236;9.894;2022-12-07T06:23:04;14.63;;;10.18;;
25988;SDS011;13778;48.236;9.894;2022-12-07T06:25:55;16.15;;;10.38;;
25988;SDS011;13778;48.236;9.894;2022-12-07T06:28:45;16.38;;;10.68;;
25988;SDS011;13778;48.236;9.894;2022-12-07T06:31:37;13.63;;;10.25;;
25988;SDS011;13778;48.236;9.894;2022-12-07T06:37:18;16.75;;;10.65;;
25988;SDS011;13778;48.236;9.894;2022-12-07T06:40:09;15.38;;;10.68;;
25988;SDS011;13778;48.236;9.894;2022-12-07T06:42:59;16.30;;;10.57;;
25988;SDS011;13778;48.236;9.894;2022-12-07T06:45:50;13.73;;;10.25;;
25988;SDS011;13778;48.236;9.894;2022-12-07T06:48:42;16.67;;;10.57;;
25988;SDS011;13778;48.236;9.894;2022-12-07T06:54:24;14.70;;;10.15;;
25988;SDS011;13778;48.236;9.894;2022-12-07T06:57:14;19.98;;;10.70;;
25988;SDS011;13778;48.236;9.894;2022-12-07T07:00:05;15.20;;;10.68;;
25988;SDS011;13778;48.236;9.894;2022-12-07T07:02:56;15.38;;;9.43;;
25988;SDS011;13778;48.236;9.894;2022-12-07T07:05:48;16.40;;;10.73;;
25988;SDS011;13778;48.236;9.894;2022-12-07T07:11:28;16.30;;;11.07;;
25988;SDS011;13778;48.236;9.894;2022-12-07T07:14:19;14.95;;;10.02;;
25988;SDS011;13778;48.236;9.894;2022-12-07T07:17:10;19.77;;;11.25;;
25988;SDS011;13778;48.236;9.894;2022-12-07T07:20:00;15.50;;;10.48;;
25988;SDS011;13778;48.236;9.894;2022-12-07T07:22:54;16.52;;;10.18;;
25988;SDS011;13778;48.236;9.894;2022-12-07T07:25:45;18.92;;;11.52;;
25988;SDS011;13778;48.236;9.894;2022-12-07T07:28:36;17.42;;;10.45;;
25988;SDS011;13778;48.236;9.894;2022-12-07T07:31:26;16.17;;;10.95;;
25988;SDS011;13778;48.236;9.894;2022-12-07T07:34:17;18.77;;;11.13;;
25988;SDS011;13778;48.236;9.894;2022-12-07T07:37:08;16.60;;;10.27;;
25988;SDS011;13778;48.236;9.894;2022-12-07T07:40:01;18.30;;;10.90;;
25988;SDS011;13778;48.236;9.894;2022-12-07T07:45:41;19.30;;;10.90;;
25988;SDS011;13778;48.236;9.894;2022-12-07T07:48:32;19.02;;;11.48;;
25988;SDS011;13778;48.236;9.894;2022-12-07T07:51:22;16.20;;;11.10;;
25988;SDS011;13778;48.236;9.894;2022-12-07T07:54:13;14.45;;;10.38;;
25988;SDS011;13778;48.236;9.894;2022-12-07T07:57:05;17.50;;;11.57;;
25988;SDS011;13778;48.236;9.894;2022-12-07T07:59:55;23.58;;;10.27;;
25988;SDS011;13778;48.236;9.894;2022-12-07T08:02:46;19.10;;;11.25;;
25988;SDS011;13778;48.236;9.894;2022-12-07T08:05:36;19.67;;;11.40;;
25988;SDS011;13778;48.236;9.894;2022-12-07T08:08:27;20.33;;;11.68;;
25988;SDS011;13778;48.236;9.894;2022-12-07T08:11:17;17.30;;;11.40;;
25988;SDS011;13778;48.236;9.894;2022-12-07T08:14:11;17.83;;;11.50;;
25988;SDS011;13778;48.236;9.894;2022-12-07T08:17:01;20.92;;;12.15;;
25988;SDS011;13778;48.236;9.894;2022-12-07T08:19:52;20.27;;;12.23;;
25988;SDS011;13778;48.236;9.894;2022-12-07T08:22:45;18.33;;;11.95;;
25988;SDS011;13778;48.236;9.894;2022-12-07T08:25:36;18.02;;;11.60;;
25988;SDS011;13778;48.236;9.894;2022-12-07T08:28:26;22.45;;;12.00;;
25988;SDS011;13778;48.236;9.894;2022-12-07T08:31:18;16.87;;;11.80;;
25988;SDS011;13778;48.236;9.894;2022-12-07T08:36:59;17.50;;;11.18;;
25988;SDS011;13778;48.236;9.894;2022-12-07T08:39:49;14.48;;;10.45;;
25988;SDS011;13778;48.236;9.894;2022-12-07T08:42:40;20.27;;;11.30;;
25988;SDS011;13778;48.236;9.894;2022-12-07T08:45:31;19.38;;;12.10;;
25988;SDS011;13778;48.236;9.894;2022-12-07T08:48:26;15.88;;;10.85;;
25988;SDS011;13778;48.236;9.894;2022-12-07T08:51:16;14.20;;;10.10;;
25988;SDS011;13778;48.236;9.894;2022-12-07T08:54:07;15.75;;;12.07;;
25988;SDS011;13778;48.236;9.894;2022-12-07T08:56:59;15.35;;;11.00;;
25988;SDS011;13778;48.236;9.894;2022-12-07T08:59:49;15.68;;;10.38;;
25988;SDS011;13778;48.236;9.894;2022-12-07T09:02:40;12.93;;;10.20;;
25988;SDS011;13778;48.236;9.894;2022-12-07T09:05:32;15.45;;;10.18;;
25988;SDS011;13778;48.236;9.894;2022-12-07T09:08:25;16.85;;;9.45;;
25988;SDS011;13778;48.236;9.894;2022-12-07T09:11:17;14.18;;;10.27;;
25988;SDS011;13778;48.236;9.894;2022-12-07T09:14:07;13.00;;;9.52;;
25988;SDS011;13778;48.236;9.894;2022-12-07T09:17:04;16.35;;;10.23;;
25988;SDS011;13778;48.236;9.894;2022-12-07T09:19:54;14.82;;;10.18;;
25988;SDS011;13778;48.236;9.894;2022-12-07T09:22:46;12.50;;;9.13;;
25988;SDS011;13778;48.236;9.894;2022-12-07T09:25:37;19.23;;;9.93;;
25988;SDS011;13778;48.236;9.894;2022-12-07T09:28:28;11.85;;;8.60;;
25988;SDS011;13778;48.236;9.894;2022-12-07T09:31:18;12.02;;;7.97;;
25988;SDS011;13778;48.236;9.894;2022-12-07T09:34:09;11.00;;;7.93;;
25988;SDS011;13778;48.236;9.894;2022-12-07T09:37:00;10.68;;;7.80;;
25988;SDS011;13778;48.236;9.894;2022-12-07T09:39:53;8.13;;;6.32;;
25988;SDS011;13778;48.236;9.894;2022-12-07T09:42:44;10.13;;;7.53;;
25988;SDS011;13778;48.236;9.894;2022-12-07T09:45:37;9.82;;;7.22;;
25988;SDS011;13778;48.236;9.894;2022-12-07T09:48:29;10.23;;;6.95;;
25988;SDS011;13778;48.236;9.894;2022-12-07T09:51:20;9.63;;;6.07;;
25988;SDS011;13778;48.236;9.894;2022-12-07T09:54:12;9.73;;;7.53;;
25988;SDS011;13778;48.236;9.894;2022-12-07T09:57:04;10.53;;;7.43;;
25988;SDS011;13778;48.236;9.894;2022-12-07T09:59:55;9.82;;;6.97;;
25988;SDS011;13778;48.236;9.894;2022-12-07T10:02:46;11.93;;;7.07;;
25988;SDS011;13778;48.236;9.894;2022-12-07T10:05:38;9.40;;;7.25;;
25988;SDS011;13778;48.236;9.894;2022-12-07T10:08:29;9.23;;;6.95;;
25988;SDS011;13778;48.236;9.894;2022-12-07T10:11:20;9.93;;;7.07;;
25988;SDS011;13778;48.236;9.894;2022-12-07T10:14:12;7.93;;;6.32;;
25988;SDS011;13778;48.236;9.894;2022-12-07T10:17:08;10.48;;;7.88;;
25988;SDS011;13778;48.236;9.894;2022-12-07T10:20:17;10.57;;;7.57;;
25988;SDS011;13778;48.236;9.894;2022-12-07T10:23:13;12.38;;;8.80;;
25988;SDS011;13778;48.236;9.894;2022-12-07T10:26:19;11.60;;;8.23;;
25988;SDS011;13778;48.236;9.894;2022-12-07T10:29:15;10.20;;;7.65;;
25988;SDS011;13778;48.236;9.894;2022-12-07T10:35:19;18.23;;;12.10;;
25988;SDS011;13778;48.236;9.894;2022-12-07T10:38:15;13.57;;;9.52;;
25988;SDS011;13778;48.236;9.894;2022-12-07T10:41:06;14.00;;;10.45;;
25988;SDS011;13778;48.236;9.894;2022-12-07T10:43:58;13.02;;;9.63;;
25988;SDS011;13778;48.236;9.894;2022-12-07T10:46:56;12.25;;;8.32;;
25988;SDS011;13778;48.236;9.894;2022-12-07T10:49:55;10.27;;;7.45;;
25988;SDS011;13778;48.236;9.894;2022-12-07T10:53:06;10.02;;;7.75;;
25988;SDS011;13778;48.236;9.894;2022-12-07T10:56:13;9.77;;;7.50;;
25988;SDS011;13778;48.236;9.894;2022-12-07T10:59:18;13.13;;;8.25;;
25988;SDS011;13778;48.236;9.894;2022-12-07T11:02:16;12.48;;;8.20;;
25988;SDS011;13778;48.236;9.894;2022-12-07T11:05:12;13.18;;;8.95;;
25988;SDS011;13778;48.236;9.894;2022-12-07T11:08:09;9.90;;;8.00;;
25988;SDS011;13778;48.236;9.894;2022-12-07T11:11:04;12.82;;;7.80;;
25988;SDS011;13778;48.236;9.894;2022-12-07T11:13:58;11.68;;;7.80;;
25988;SDS011;13778;48.236;9.894;2022-12-07T11:16:52;10.70;;;7.78;;
25988;SDS011;13778;48.236;9.894;2022-12-07T11:19:52;9.18;;;7.35;;
25988;SDS011;13778;48.236;9.894;2022-12-07T11:22:46;13.57;;;7.65;;
25988;SDS011;13778;48.236;9.894;2022-12-07T11:25:38;10.20;;;7.95;;
25988;SDS011;13778;48.236;9.894;2022-12-07T11:28:33;8.82;;;6.85;;
25988;SDS011;13778;48.236;9.894;2022-12-07T11:31:28;10.07;;;7.65;;
25988;SDS011;13778;48.236;9.894;2022-12-07T11:34:21;11.10;;;6.90;;
25988;SDS011;13778;48.236;9.894;2022-12-07T11:37:17;10.93;;;7.85;;
25988;SDS011;13778;48.236;9.894;2022-12-07T11:40:13;10.50;;;6.55;;
25988;SDS011;13778;48.236;9.894;2022-12-07T11:43:09;11.75;;;6.93;;
25988;SDS011;13778;48.236;9.894;2022-12-07T11:46:02;14.10;;;8.55;;
25988;SDS011;13778;48.236;9.894;2022-12-07T11:48:55;12.98;;;7.15;;
25988;SDS011;13778;48.236;9.894;2022-12-07T11:51:48;8.07;;;6.65;;
25988;SDS011;13778;48.236;9.894;2022-12-07T11:54:40;9.57;;;6.87;;
25988;SDS011;13778;48.236;9.894;2022-12-07T11:57:32;9.57;;;6.32;;
25988;SDS011;13778;48.236;9.894;2022-12-07T12:00:25;9.20;;;6.55;;
25988;SDS011;13778;48.236;9.894;2022-12-07T12:03:17;10.30;;;7.30;;
25988;SDS011;13778;48.236;9.894;2022-12-07T12:06:10;7.65;;;5.93;;
25988;SDS011;13778;48.236;9.894;2022-12-07T12:09:02;9.02;;;6.45;;
25988;SDS011;13778;48.236;9.894;2022-12-07T12:12:00;8.75;;;7.00;;
25988;SDS011;13778;48.236;9.894;2022-12-07T12:14:59;7.90;;;5.68;;
25988;SDS011;13778;48.236;9.894;2022-12-07T12:17:53;10.32;;;6.80;;
25988;SDS011;13778;48.236;9.894;2022-12-07T12:20:47;12.05;;;7.90;;
25988;SDS011;13778;48.236;9.894;2022-12-07T12:23:40;13.32;;;7.70;;
25988;SDS011;13778;48.236;9.894;2022-12-07T12:26:31;9.95;;;6.13;;
25988;SDS011;13778;48.236;9.894;2022-12-07T12:29:26;8.20;;;6.07;;
25988;SDS011;13778;48.236;9.894;2022-12-07T12:32:18;9.23;;;5.78;;
25988;SDS011;13778;48.236;9.894;2022-12-07T12:41:09;8.40;;;6.50;;
25988;SDS011;13778;48.236;9.894;2022-12-07T12:47:42;7.97;;;5.90;;
25988;SDS011;13778;48.236;9.894;2022-12-07T12:50:34;11.15;;;5.70;;
25988;SDS011;13778;48.236;9.894;2022-12-07T12:53:25;9.30;;;5.65;;
25988;SDS011;13778;48.236;9.894;2022-12-07T12:56:23;7.25;;;5.85;;
25988;SDS011;13778;48.236;9.894;2022-12-07T12:59:22;7.82;;;5.95;;
25988;SDS011;13778;48.236;9.894;2022-12-07T13:02:19;11.65;;;7.10;;
25988;SDS011;13778;48.236;9.894;2022-12-07T13:05:18;7.57;;;5.97;;
25988;SDS011;13778;48.236;9.894;2022-12-07T13:08:11;8.68;;;6.53;;
25988;SDS011;13778;48.236;9.894;2022-12-07T13:11:15;8.45;;;5.63;;
25988;SDS011;13778;48.236;9.894;2022-12-07T13:23:33;13.50;;;5.80;;
25988;SDS011;13778;48.236;9.894;2022-12-07T13:26:24;7.10;;;6.07;;
25988;SDS011;13778;48.236;9.894;2022-12-07T13:29:22;8.55;;;6.40;;
25988;SDS011;13778;48.236;9.894;2022-12-07T13:32:17;8.07;;;6.70;;
25988;SDS011;13778;48.236;9.894;2022-12-07T13:35:28;12.38;;;6.95;;
25988;SDS011;13778;48.236;9.894;2022-12-07T13:38:23;8.55;;;5.97;;
25988;SDS011;13778;48.236;9.894;2022-12-07T13:41:17;7.65;;;5.60;;
25988;SDS011;13778;48.236;9.894;2022-12-07T13:44:09;8.63;;;5.97;;
25988;SDS011;13778;48.236;9.894;2022-12-07T13:47:04;10.20;;;6.95;;
25988;SDS011;13778;48.236;9.894;2022-12-07T13:49:56;8.95;;;6.20;;
25988;SDS011;13778;48.236;9.894;2022-12-07T13:52:47;11.13;;;6.90;;
25988;SDS011;13778;48.236;9.894;2022-12-07T13:55:38;11.80;;;6.90;;
25988;SDS011;13778;48.236;9.894;2022-12-07T13:58:35;8.68;;;6.07;;
25988;SDS011;13778;48.236;9.894;2022-12-07T14:01:26;10.05;;;6.45;;
25988;SDS011;13778;48.236;9.894;2022-12-07T14:04:17;12.60;;;6.60;;
25988;SDS011;13778;48.236;9.894;2022-12-07T14:07:21;12.68;;;7.80;;
25988;SDS011;13778;48.236;9.894;2022-12-07T14:10:22;8.40;;;6.72;;
25988;SDS011;13778;48.236;9.894;2022-12-07T14:13:24;9.15;;;6.22;;
25988;SDS011;13778;48.236;9.894;2022-12-07T14:16:21;11.38;;;6.90;;
25988;SDS011;13778;48.236;9.894;2022-12-07T14:22:20;13.60;;;9.18;;
25988;SDS011;13778;48.236;9.894;2022-12-07T14:25:21;34.28;;;18.55;;
25988;SDS011;13778;48.236;9.894;2022-12-07T14:28:24;13.43;;;9.18;;
25988;SDS011;13778;48.236;9.894;2022-12-07T14:31:16;12.20;;;7.78;;
25988;SDS011;13778;48.236;9.894;2022-12-07T14:34:12;101.68;;;16.17;;
25988;SDS011;13778;48.236;9.894;2022-12-07T14:37:03;51.95;;;9.80;;
25988;SDS011;13778;48.236;9.894;2022-12-07T14:39:54;11.35;;;7.63;;
25988;SDS011;13778;48.236;9.894;2022-12-07T14:42:44;9.55;;;6.95;;
25988;SDS011;13778;48.236;9.894;2022-12-07T14:45:35;10.97;;;6.97;;
25988;SDS011;13778;48.236;9.894;2022-12-07T14:48:26;9.13;;;6.50;;
25988;SDS011;13778;48.236;9.894;2022-12-07T14:51:18;10.68;;;7.55;;
25988;SDS011;13778;48.236;9.894;2022-12-07T14:56:58;11.98;;;8.15;;
25988;SDS011;13778;48.236;9.894;2022-12-07T14:59:49;10.23;;;7.60;;
25988;SDS011;13778;48.236;9.894;2022-12-07T15:02:39;11.70;;;7.70;;
25988;SDS011;13778;48.236;9.894;2022-12-07T15:05:30;12.73;;;7.45;;
25988;SDS011;13778;48.236;9.894;2022-12-07T15:08:22;11.35;;;7.53;;
25988;SDS011;13778;48.236;9.894;2022-12-07T15:11:12;11.18;;;7.88;;
25988;SDS011;13778;48.236;9.894;2022-12-07T15:14:03;13.85;;;7.97;;
25988;SDS011;13778;48.236;9.894;2022-12-07T15:17:01;15.15;;;8.27;;
25988;SDS011;13778;48.236;9.894;2022-12-07T15:19:51;10.60;;;7.95;;
25988;SDS011;13778;48.236;9.894;2022-12-07T15:22:42;13.82;;;8.80;;
25988;SDS011;13778;48.236;9.894;2022-12-07T15:25:34;11.63;;;7.70;;
25988;SDS011;13778;48.236;9.894;2022-12-07T15:28:24;12.18;;;8.80;;
25988;SDS011;13778;48.236;9.894;2022-12-07T15:31:15;13.23;;;8.68;;
25988;SDS011;13778;48.236;9.894;2022-12-07T15:34:06;12.80;;;8.07;;
25988;SDS011;13778;48.236;9.894;2022-12-07T15:36:57;13.20;;;8.25;;
25988;SDS011;13778;48.236;9.894;2022-12-07T15:39:47;16.85;;;8.90;;
25988;SDS011;13778;48.236;9.894;2022-12-07T15:42:39;12.32;;;8.45;;
25988;SDS011;13778;48.236;9.894;2022-12-07T15:45:30;14.68;;;9.43;;
25988;SDS011;13778;48.236;9.894;2022-12-07T15:48:19;17.08;;;10.23;;
25988;SDS011;13778;48.236;9.894;2022-12-07T15:51:10;13.10;;;9.25;;
25988;SDS011;13778;48.236;9.894;2022-12-07T15:54:01;13.32;;;9.07;;
25988;SDS011;13778;48.236;9.894;2022-12-07T15:56:51;13.27;;;9.60;;
25988;SDS011;13778;48.236;9.894;2022-12-07T15:59:43;17.42;;;11.23;;
25988;SDS011;13778;48.236;9.894;2022-12-07T16:02:33;16.67;;;10.63;;
25988;SDS011;13778;48.236;9.894;2022-12-07T16:05:24;16.92;;;10.57;;
25988;SDS011;13778;48.236;9.894;2022-12-07T16:08:14;16.08;;;10.50;;
25988;SDS011;13778;48.236;9.894;2022-12-07T16:11:05;18.25;;;11.25;;
25988;SDS011;13778;48.236;9.894;2022-12-07T16:13:55;16.48;;;11.70;;
25988;SDS011;13778;48.236;9.894;2022-12-07T16:16:47;25.13;;;11.07;;
25988;SDS011;13778;48.236;9.894;2022-12-07T16:22:28;20.30;;;11.45;;
25988;SDS011;13778;48.236;9.894;2022-12-07T16:25:19;20.08;;;11.65;;
25988;SDS011;13778;48.236;9.894;2022-12-07T16:28:09;17.77;;;12.02;;
25988;SDS011;13778;48.236;9.894;2022-12-07T16:31:01;17.08;;;11.15;;
25988;SDS011;13778;48.236;9.894;2022-12-07T16:33:54;18.00;;;12.00;;
25988;SDS011;13778;48.236;9.894;2022-12-07T16:36:45;18.17;;;11.48;;
25988;SDS011;13778;48.236;9.894;2022-12-07T16:39:36;17.35;;;11.65;;
25988;SDS011;13778;48.236;9.894;2022-12-07T16:42:26;19.45;;;11.23;;
25988;SDS011;13778;48.236;9.894;2022-12-07T16:45:17;19.63;;;13.40;;
25988;SDS011;13778;48.236;9.894;2022-12-07T16:48:07;19.88;;;11.98;;
25988;SDS011;13778;48.236;9.894;2022-12-07T16:50:59;22.90;;;13.00;;
25988;SDS011;13778;48.236;9.894;2022-12-07T16:53:53;20.42;;;14.00;;
25988;SDS011;13778;48.236;9.894;2022-12-07T16:56:43;18.98;;;13.02;;
25988;SDS011;13778;48.236;9.894;2022-12-07T16:59:33;21.70;;;12.15;;
25988;SDS011;13778;48.236;9.894;2022-12-07T17:02:24;21.42;;;12.27;;
25988;SDS011;13778;48.236;9.894;2022-12-07T17:05:14;18.98;;;12.15;;
25988;SDS011;13778;48.236;9.894;2022-12-07T17:08:06;19.23;;;12.07;;
25988;SDS011;13778;48.236;9.894;2022-12-07T17:10:56;20.75;;;12.88;;
25988;SDS011;13778;48.236;9.894;2022-12-07T17:13:47;21.67;;;12.68;;
25988;SDS011;13778;48.236;9.894;2022-12-07T17:16:55;19.38;;;11.38;;
25988;SDS011;13778;48.236;9.894;2022-12-07T17:19:45;17.65;;;11.38;;
25988;SDS011;13778;48.236;9.894;2022-12-07T17:22:36;18.90;;;12.32;;
25988;SDS011;13778;48.236;9.894;2022-12-07T17:25:28;23.45;;;13.50;;
25988;SDS011;13778;48.236;9.894;2022-12-07T17:28:19;24.42;;;13.75;;
25988;SDS011;13778;48.236;9.894;2022-12-07T17:31:10;28.05;;;18.42;;
25988;SDS011;13778;48.236;9.894;2022-12-07T17:34:01;25.00;;;14.63;;
25988;SDS011;13778;48.236;9.894;2022-12-07T17:36:51;24.05;;;17.02;;
25988;SDS011;13778;48.236;9.894;2022-12-07T17:39:43;24.63;;;15.93;;
25988;SDS011;13778;48.236;9.894;2022-12-07T17:42:35;26.40;;;14.63;;
25988;SDS011;13778;48.236;9.894;2022-12-07T17:48:16;26.67;;;16.35;;
25988;SDS011;13778;48.236;9.894;2022-12-07T17:51:06;34.08;;;17.77;;
25988;SDS011;13778;48.236;9.894;2022-12-07T17:54:14;36.58;;;21.67;;
25988;SDS011;13778;48.236;9.894;2022-12-07T17:57:04;43.20;;;26.70;;
25988;SDS011;13778;48.236;9.894;2022-12-07T17:59:56;44.88;;;28.75;;
25988;SDS011;13778;48.236;9.894;2022-12-07T18:02:47;55.03;;;29.95;;
25988;SDS011;13778;48.236;9.894;2022-12-07T18:05:37;46.17;;;26.20;;
25988;SDS011;13778;48.236;9.894;2022-12-07T18:08:28;36.20;;;20.38;;
25988;SDS011;13778;48.236;9.894;2022-12-07T18:11:18;35.50;;;21.25;;
25988;SDS011;13778;48.236;9.894;2022-12-07T18:14:09;34.03;;;19.90;;
25988;SDS011;13778;48.236;9.894;2022-12-07T18:17:01;32.38;;;18.42;;